createdAt,value
2023-05-21T00:01:57.243Z,100757.09
2023-05-21T00:04:25.928Z,100757.65
2023-05-21T00:06:53.158Z,100759.67
2023-05-21T00:09:20.205Z,100755.08
2023-05-21T00:11:47.294Z,100752.93
2023-05-21T00:14:14.406Z,100749.10
2023-05-21T00:16:41.433Z,100749.93
2023-05-21T00:19:08.614Z,100749.88
2023-05-21T00:21:35.909Z,100756.78
2023-05-21T00:24:02.899Z,100758.84
2023-05-21T00:26:30.120Z,100751.18
2023-05-21T00:28:57.433Z,100749.41
2023-05-21T00:31:24.555Z,100743.17
2023-05-21T00:33:51.793Z,100741.91
2023-05-21T00:36:18.832Z,100741.61
2023-05-21T00:38:46.125Z,100740.52
2023-05-21T00:41:13.412Z,100738.32
2023-05-21T00:43:42.338Z,100736.21
2023-05-21T00:46:16.907Z,100729.51
2023-05-21T00:48:45.108Z,100733.60
2023-05-21T00:51:13.297Z,100735.33
2023-05-21T00:53:40.434Z,100734.84
2023-05-21T00:56:07.588Z,100736.30
2023-05-21T00:58:34.630Z,100730.63
2023-05-21T01:01:07.255Z,100729.27
2023-05-21T01:03:38.759Z,100728.62
2023-05-21T01:06:07.688Z,100732.20
2023-05-21T01:08:36.497Z,100733.48
2023-05-21T01:11:03.832Z,100738.27
2023-05-21T01:13:31.410Z,100736.61
2023-05-21T01:15:59.577Z,100738.74
2023-05-21T01:18:26.790Z,100732.30
2023-05-21T01:20:53.925Z,100732.63
2023-05-21T01:23:21.143Z,100730.34
2023-05-21T01:25:48.388Z,100729.67
2023-05-21T01:28:15.455Z,100731.89
2023-05-21T01:30:42.812Z,100732.30
2023-05-21T01:33:27.066Z,100739.30
2023-05-21T01:35:55.965Z,100741.73
2023-05-21T01:38:38.297Z,100744.50
2023-05-21T01:41:12.999Z,100741.50
2023-05-21T01:43:42.299Z,100740.11
2023-05-21T01:46:10.939Z,100736.16
2023-05-21T01:48:38.247Z,100735.98
2023-05-21T01:51:06.215Z,100734.56
2023-05-21T01:53:33.405Z,100734.35
2023-05-21T01:56:01.172Z,100738.73
2023-05-21T01:58:28.185Z,100734.82
2023-05-21T02:00:55.810Z,100733.64
2023-05-21T02:03:25.177Z,100733.55
2023-05-21T02:05:52.274Z,100730.97
2023-05-21T02:08:20.587Z,100733.91
2023-05-21T02:10:47.770Z,100738.42
2023-05-21T02:13:14.870Z,100739.77
2023-05-21T02:15:42.525Z,100738.30
2023-05-21T02:18:09.815Z,100744.12
2023-05-21T02:20:36.901Z,100746.45
2023-05-21T02:23:04.046Z,100746.92
2023-05-21T02:25:31.197Z,100744.96
2023-05-21T02:27:58.389Z,100746.60
2023-05-21T02:30:25.744Z,100740.97
2023-05-21T02:32:53.740Z,100740.79
2023-05-21T02:35:21.266Z,100741.84
2023-05-21T02:37:49.237Z,100745.04
2023-05-21T02:40:16.460Z,100745.07
2023-05-21T02:42:43.637Z,100746.03
2023-05-21T02:45:12.687Z,100749.58
2023-05-21T02:47:41.804Z,100745.38
2023-05-21T02:50:09.316Z,100740.76
2023-05-21T02:52:42.717Z,100743.27
2023-05-21T02:55:09.951Z,100746.02
2023-05-21T02:57:37.077Z,100744.80
2023-05-21T03:00:06.330Z,100746.48
2023-05-21T03:02:33.966Z,100740.75
2023-05-21T03:05:01.123Z,100742.67
2023-05-21T03:07:28.380Z,100744.69
2023-05-21T03:09:55.628Z,100745.82
2023-05-21T03:12:22.679Z,100740.92
2023-05-21T03:14:51.567Z,100743.55
2023-05-21T03:17:20.966Z,100744.09
2023-05-21T03:19:49.396Z,100746.39
2023-05-21T03:22:16.603Z,100746.60
2023-05-21T03:24:45.593Z,100748.24
2023-05-21T03:27:12.765Z,100747.73
2023-05-21T03:29:40.331Z,100748.44
2023-05-21T03:32:08.432Z,100748.02
2023-05-21T03:34:36.206Z,100749.74
2023-05-21T03:37:03.393Z,100754.38
2023-05-21T03:39:30.855Z,100755.21
2023-05-21T03:41:58.113Z,100763.16
2023-05-21T03:44:40.005Z,100767.20
2023-05-21T03:47:39.328Z,100766.65
2023-05-21T03:50:09.516Z,100767.89
2023-05-21T03:52:36.680Z,100770.87
2023-05-21T03:55:04.043Z,100769.64
2023-05-21T03:57:31.198Z,100759.67
2023-05-21T04:00:01.002Z,100757.60
2023-05-21T04:02:28.561Z,100756.44
2023-05-21T04:04:56.270Z,100754.41
2023-05-21T04:07:24.101Z,100756.34
2023-05-21T04:09:51.445Z,100751.87
2023-05-21T04:12:22.696Z,100755.23
2023-05-21T04:14:49.838Z,100753.28
2023-05-21T04:17:16.889Z,100749.21
2023-05-21T04:19:44.548Z,100750.86
2023-05-21T04:22:12.632Z,100748.64
2023-05-21T04:24:39.872Z,100749.18
2023-05-21T04:27:29.043Z,100748.20
2023-05-21T04:29:58.345Z,100748.73
2023-05-21T04:32:25.434Z,100744.79
2023-05-21T04:34:52.643Z,100740.33
2023-05-21T04:37:19.894Z,100737.91
2023-05-21T04:39:47.203Z,100737.02
2023-05-21T04:42:14.605Z,100737.05
2023-05-21T04:44:44.783Z,100728.54
2023-05-21T04:47:15.128Z,100727.40
2023-05-21T04:49:42.519Z,100722.67
2023-05-21T04:52:09.664Z,100719.64
2023-05-21T04:54:39.263Z,100717.03
2023-05-21T04:57:06.927Z,100712.33
2023-05-21T04:59:37.103Z,100712.51
2023-05-21T05:02:04.611Z,100707.51
2023-05-21T05:04:32.141Z,100708.48
2023-05-21T05:06:59.427Z,100706.61
2023-05-21T05:12:37.086Z,100704.19
2023-05-21T05:15:06.218Z,100709.20
2023-05-21T05:17:34.705Z,100710.39
2023-05-21T05:20:02.043Z,100707.56
2023-05-21T05:22:29.794Z,100704.19
2023-05-21T05:24:57.607Z,100703.94
2023-05-21T05:27:25.122Z,100703.55
2023-05-21T05:29:52.267Z,100703.43
2023-05-21T05:32:20.241Z,100704.66
2023-05-21T05:34:47.468Z,100705.36
2023-05-21T05:37:14.650Z,100707.48
2023-05-21T05:39:41.690Z,100708.91
2023-05-21T05:42:09.059Z,100707.23
2023-05-21T05:44:36.342Z,100706.60
2023-05-21T05:47:03.959Z,100706.13
2023-05-21T05:49:31.418Z,100708.02
2023-05-21T05:51:58.782Z,100706.79
2023-05-21T05:54:26.436Z,100708.31
2023-05-21T05:56:53.790Z,100708.02
2023-05-21T05:59:21.246Z,100703.36
2023-05-21T06:01:49.325Z,100709.38
2023-05-21T06:04:16.700Z,100709.71
2023-05-21T06:06:44.027Z,100712.08
2023-05-21T06:09:12.173Z,100712.64
2023-05-21T06:11:41.614Z,100712.89
2023-05-21T06:14:09.082Z,100715.81
2023-05-21T06:16:39.547Z,100713.70
2023-05-21T06:19:07.305Z,100713.87
2023-05-21T06:21:34.612Z,100712.31
2023-05-21T06:24:02.474Z,100710.99
2023-05-21T06:26:29.846Z,100717.52
2023-05-21T06:28:57.394Z,100717.80
2023-05-21T06:31:25.059Z,100716.84
2023-05-21T06:35:59.536Z,100719.21
2023-05-21T06:38:26.966Z,100717.52
2023-05-21T06:40:54.672Z,100714.23
2023-05-21T06:43:34.823Z,100715.08
2023-05-21T06:46:20.707Z,100705.80
2023-05-21T06:48:48.012Z,100704.06
2023-05-21T06:51:15.176Z,100700.05
2023-05-21T06:53:42.935Z,100694.65
2023-05-21T06:56:10.074Z,100694.23
2023-05-21T06:58:41.296Z,100690.96
2023-05-21T07:01:08.371Z,100688.48
2023-05-21T07:03:36.694Z,100693.66
2023-05-21T07:06:04.180Z,100687.70
2023-05-21T07:08:31.747Z,100679.42
2023-05-21T07:10:59.409Z,100680.61
2023-05-21T07:13:26.755Z,100669.23
2023-05-21T07:15:53.907Z,100668.22
2023-05-21T07:18:21.325Z,100672.71
2023-05-21T07:20:48.439Z,100669.54
2023-05-21T07:23:16.082Z,100676.23
2023-05-21T07:25:43.231Z,100677.88
2023-05-21T07:28:10.378Z,100677.14
2023-05-21T07:30:39.680Z,100679.50
2023-05-21T07:33:09.615Z,100677.15
2023-05-21T07:35:36.910Z,100670.52
2023-05-21T07:38:04.467Z,100669.39
2023-05-21T07:40:32.477Z,100668.49
2023-05-21T07:43:01.501Z,100669.75
2023-05-21T07:45:30.154Z,100665.96
2023-05-21T07:47:57.388Z,100661.13
2023-05-21T07:50:26.066Z,100658.52
2023-05-21T07:52:53.459Z,100650.48
2023-05-21T07:55:20.972Z,100649.83
2023-05-21T07:57:48.632Z,100648.35
2023-05-21T08:00:19.389Z,100644.17
2023-05-21T08:02:52.792Z,100639.84
2023-05-21T08:05:22.282Z,100641.55
2023-05-21T08:07:51.080Z,100640.20
2023-05-21T08:10:19.501Z,100642.38
2023-05-21T08:12:47.415Z,100647.27
2023-05-21T08:15:16.205Z,100644.79
2023-05-21T08:17:45.177Z,100646.22
2023-05-21T08:20:13.849Z,100639.20
2023-05-21T08:22:41.653Z,100642.95
2023-05-21T08:25:09.821Z,100645.23
2023-05-21T08:27:37.276Z,100657.64
2023-05-21T08:30:05.860Z,100650.15
2023-05-21T08:32:33.021Z,100641.35
2023-05-21T08:35:01.287Z,100640.59
2023-05-21T08:37:42.366Z,100637.98
2023-05-21T08:40:36.140Z,100629.16
2023-05-21T08:43:03.391Z,100629.15
2023-05-21T08:45:41.821Z,100622.91
2023-05-21T08:48:09.916Z,100620.73
2023-05-21T08:50:37.308Z,100621.67
2023-05-21T08:53:19.905Z,100627.12
2023-05-21T08:55:56.173Z,100622.44
2023-05-21T08:58:23.845Z,100622.36
2023-05-21T09:00:51.305Z,100627.27
2023-05-21T09:03:18.860Z,100621.96
2023-05-21T09:05:47.050Z,100618.03
2023-05-21T09:08:18.439Z,100612.58
2023-05-21T09:10:53.652Z,100608.98
2023-05-21T09:13:23.101Z,100609.29
2023-05-21T09:15:51.725Z,100614.79
2023-05-21T09:18:19.138Z,100613.19
2023-05-21T09:21:26.661Z,100609.56
2023-05-21T09:23:58.898Z,100608.82
2023-05-21T09:26:26.855Z,100608.15
2023-05-21T09:28:58.260Z,100612.46
2023-05-21T09:31:26.319Z,100614.16
2023-05-21T09:33:53.787Z,100607.80
2023-05-21T09:36:21.451Z,100599.93
2023-05-21T09:38:51.041Z,100601.61
2023-05-21T09:41:21.888Z,100597.89
2023-05-21T09:43:49.546Z,100600.05
2023-05-21T09:46:21.259Z,100602.05
2023-05-21T09:48:48.350Z,100601.61
2023-05-21T09:51:18.982Z,100599.17
2023-05-21T09:53:51.802Z,100599.50
2023-05-21T09:56:23.744Z,100600.42
2023-05-21T09:58:58.104Z,100594.56
2023-05-21T10:01:25.368Z,100592.23
2023-05-21T10:04:00.377Z,100591.15
2023-05-21T10:06:30.017Z,100583.21
2023-05-21T10:08:58.010Z,100577.48
2023-05-21T10:11:30.955Z,100577.14
2023-05-21T10:13:58.934Z,100574.33
2023-05-21T10:16:26.356Z,100575.31
2023-05-21T10:18:54.553Z,100578.19
2023-05-21T10:21:23.191Z,100575.31
2023-05-21T10:23:51.306Z,100572.08
2023-05-21T10:26:20.115Z,100571.63
2023-05-21T10:28:47.646Z,100562.92
2023-05-21T10:31:14.760Z,100558.08
2023-05-21T10:33:43.237Z,100561.64
2023-05-21T10:36:10.590Z,100559.58
2023-05-21T10:38:38.045Z,100555.39
2023-05-21T10:41:06.940Z,100556.56
2023-05-21T10:43:56.124Z,100565.73
2023-05-21T10:46:53.584Z,100566.70
2023-05-21T10:49:57.916Z,100573.14
2023-05-21T10:52:37.163Z,100576.69
2023-05-21T10:55:27.335Z,100566.20
2023-05-21T10:57:54.686Z,100567.40
2023-05-21T11:00:21.733Z,100561.07
2023-05-21T11:02:49.122Z,100569.33
2023-05-21T11:05:16.232Z,100567.27
2023-05-21T11:07:59.355Z,100571.02
2023-05-21T11:10:37.014Z,100566.13
2023-05-21T11:13:08.615Z,100571.42
2023-05-21T11:15:57.718Z,100571.48
2023-05-21T11:18:35.471Z,100569.48
2023-05-21T11:21:16.247Z,100573.76
2023-05-21T11:23:59.038Z,100572.38
2023-05-21T11:26:27.568Z,100566.88
2023-05-21T11:29:03.816Z,100572.37
2023-05-21T11:31:38.852Z,100567.83
2023-05-21T11:34:15.838Z,100573.41
2023-05-21T11:36:49.695Z,100568.43
2023-05-21T11:39:21.931Z,100572.22
2023-05-21T11:42:04.436Z,100572.05
2023-05-21T11:44:42.112Z,100574.56
2023-05-21T11:47:12.289Z,100569.36
2023-05-21T11:49:39.457Z,100568.61
2023-05-21T11:52:07.791Z,100571.80
2023-05-21T11:54:46.596Z,100568.98
2023-05-21T11:57:18.072Z,100566.63
2023-05-21T11:59:46.398Z,100570.09
2023-05-21T12:02:20.890Z,100561.48
2023-05-21T12:04:51.282Z,100556.56
2023-05-21T12:07:22.555Z,100553.80
2023-05-21T12:09:50.403Z,100554.51
2023-05-21T12:12:19.824Z,100553.57
2023-05-21T12:14:48.299Z,100556.63
2023-05-21T12:17:22.991Z,100552.10
2023-05-21T12:19:52.362Z,100553.45
2023-05-21T12:22:19.568Z,100552.54
2023-05-21T12:24:46.992Z,100556.54
2023-05-21T12:27:16.907Z,100558.48
2023-05-21T12:29:44.847Z,100557.48
2023-05-21T12:32:13.641Z,100549.59
2023-05-21T12:34:54.924Z,100553.02
2023-05-21T12:37:22.508Z,100551.86
2023-05-21T12:39:53.979Z,100551.98
2023-05-21T12:42:31.113Z,100550.46
2023-05-21T12:44:58.438Z,100545.17
2023-05-21T12:47:26.808Z,100546.97
2023-05-21T12:49:56.151Z,100541.64
2023-05-21T12:52:23.710Z,100546.82
2023-05-21T12:54:52.535Z,100548.67
2023-05-21T12:57:21.370Z,100548.11
2023-05-21T12:59:53.123Z,100545.09
2023-05-21T13:02:24.756Z,100556.52
2023-05-21T13:05:11.336Z,100554.00
2023-05-21T13:07:39.641Z,100558.99
2023-05-21T13:10:07.524Z,100554.55
2023-05-21T13:12:34.745Z,100551.18
2023-05-21T13:15:03.438Z,100545.80
2023-05-21T13:17:30.929Z,100545.06
2023-05-21T13:20:05.695Z,100539.33
2023-05-21T13:22:33.169Z,100540.17
2023-05-21T13:25:00.222Z,100541.27
2023-05-21T13:27:27.277Z,100543.04
2023-05-21T13:29:54.837Z,100536.20
2023-05-21T13:32:22.307Z,100536.77
2023-05-21T13:34:49.457Z,100530.59
2023-05-21T13:37:16.491Z,100535.95
2023-05-21T13:39:43.558Z,100536.40
2023-05-21T13:42:12.808Z,100534.13
2023-05-21T13:44:40.067Z,100532.53
2023-05-21T13:47:07.558Z,100533.84
2023-05-21T13:49:34.956Z,100531.49
2023-05-21T13:52:02.414Z,100530.77
2023-05-21T13:54:29.564Z,100529.84
2023-05-21T13:56:58.928Z,100527.78
2023-05-21T13:59:26.080Z,100526.66
2023-05-21T14:01:53.261Z,100522.88
2023-05-21T14:04:21.056Z,100522.73
2023-05-21T14:06:48.350Z,100521.50
2023-05-21T14:09:16.078Z,100521.92
2023-05-21T14:11:43.172Z,100514.92
2023-05-21T14:14:10.322Z,100512.67
2023-05-21T14:16:37.489Z,100514.63
2023-05-21T14:19:04.620Z,100513.98
2023-05-21T14:21:32.023Z,100507.34
2023-05-21T14:23:59.100Z,100496.40
2023-05-21T14:26:26.946Z,100494.51
2023-05-21T14:28:54.011Z,100493.04
2023-05-21T14:31:23.511Z,100493.84
2023-05-21T14:33:50.700Z,100492.56
2023-05-21T14:36:18.058Z,100496.39
2023-05-21T14:38:45.052Z,100495.91
2023-05-21T14:41:12.332Z,100493.45
2023-05-21T14:43:39.374Z,100490.81
2023-05-21T14:46:06.435Z,100489.60
2023-05-21T14:48:33.659Z,100487.20
2023-05-21T14:51:01.240Z,100488.52
2023-05-21T14:53:28.308Z,100485.80
2023-05-21T14:55:55.752Z,100483.61
2023-05-21T14:58:23.154Z,100481.77
2023-05-21T15:00:50.337Z,100481.83
2023-05-21T15:03:18.015Z,100480.04
2023-05-21T15:05:45.269Z,100477.58
2023-05-21T15:08:12.292Z,100475.83
2023-05-21T15:10:39.407Z,100474.45
2023-05-21T15:13:06.451Z,100472.32
2023-05-21T15:15:33.658Z,100465.58
2023-05-21T15:18:01.053Z,100465.13
2023-05-21T15:20:28.161Z,100466.25
2023-05-21T15:23:05.039Z,100462.49
2023-05-21T15:25:42.295Z,100465.84
2023-05-21T15:28:09.402Z,100464.67
2023-05-21T15:30:36.552Z,100464.64
2023-05-21T15:33:03.838Z,100464.70
2023-05-21T15:35:31.085Z,100468.00
2023-05-21T15:37:58.321Z,100465.02
2023-05-21T15:40:27.101Z,100461.54
2023-05-21T15:42:54.759Z,100462.70
2023-05-21T15:45:21.874Z,100466.93
2023-05-21T15:47:49.149Z,100465.19
2023-05-21T15:50:16.306Z,100460.85
2023-05-21T15:52:43.563Z,100459.41
2023-05-21T15:55:10.763Z,100457.70
2023-05-21T15:57:38.103Z,100458.36
2023-05-21T16:00:06.412Z,100454.45
2023-05-21T16:02:35.870Z,100461.25
2023-05-21T16:05:03.181Z,100458.13
2023-05-21T16:07:30.261Z,100459.60
2023-05-21T16:09:57.474Z,100456.17
2023-05-21T16:12:24.633Z,100455.21
2023-05-21T16:14:51.754Z,100454.44
2023-05-21T16:17:20.102Z,100457.68
2023-05-21T16:19:47.840Z,100453.60
2023-05-21T16:22:15.184Z,100456.56
2023-05-21T16:24:42.602Z,100458.61
2023-05-21T16:27:09.649Z,100456.06
2023-05-21T16:29:38.666Z,100457.65
2023-05-21T16:32:07.960Z,100453.91
2023-05-21T16:34:36.161Z,100453.51
2023-05-21T16:37:03.274Z,100450.34
2023-05-21T16:39:30.436Z,100453.08
2023-05-21T16:42:00.022Z,100450.67
2023-05-21T16:44:27.888Z,100458.05
2023-05-21T16:46:54.987Z,100457.98
2023-05-21T16:49:22.192Z,100459.52
2023-05-21T16:51:49.303Z,100459.34
2023-05-21T16:54:16.399Z,100456.30
2023-05-21T16:56:43.440Z,100456.41
2023-05-21T16:59:10.633Z,100449.55
2023-05-21T17:01:37.821Z,100449.98
2023-05-21T17:04:05.177Z,100447.56
2023-05-21T17:06:34.229Z,100445.56
2023-05-21T17:09:01.890Z,100442.96
2023-05-21T17:11:29.629Z,100438.46
2023-05-21T17:13:56.731Z,100440.27
2023-05-21T17:16:25.259Z,100435.45
2023-05-21T17:18:52.803Z,100433.70
2023-05-21T17:21:20.757Z,100429.60
2023-05-21T17:23:47.940Z,100431.03
2023-05-21T17:26:15.570Z,100433.52
2023-05-21T17:28:43.472Z,100428.70
2023-05-21T17:31:10.614Z,100429.66
2023-05-21T17:33:39.619Z,100427.73
2023-05-21T17:36:07.282Z,100429.25
2023-05-21T17:38:34.385Z,100431.19
2023-05-21T17:41:01.466Z,100429.30
2023-05-21T17:43:29.035Z,100432.60
2023-05-21T17:45:56.179Z,100430.03
2023-05-21T17:48:23.292Z,100433.18
2023-05-21T17:50:51.396Z,100431.20
2023-05-21T17:53:19.265Z,100430.87
2023-05-21T17:55:46.420Z,100435.56
2023-05-21T17:58:13.567Z,100433.77
2023-05-21T18:00:40.645Z,100438.26
2023-05-21T18:03:07.990Z,100438.21
2023-05-21T18:05:35.667Z,100442.98
2023-05-21T18:08:03.204Z,100437.55
2023-05-21T18:10:30.502Z,100432.99
2023-05-21T18:12:57.696Z,100437.38
2023-05-21T18:15:24.653Z,100435.92
2023-05-21T18:17:51.689Z,100437.25
2023-05-21T18:20:18.836Z,100435.84
2023-05-21T18:22:45.956Z,100437.32
2023-05-21T18:25:13.485Z,100437.58
2023-05-21T18:27:40.804Z,100440.15
2023-05-21T18:30:08.700Z,100435.89
2023-05-21T18:32:40.514Z,100437.96
2023-05-21T18:35:11.618Z,100436.94
2023-05-21T18:37:42.349Z,100444.51
2023-05-21T18:40:10.072Z,100440.40
2023-05-21T18:42:37.442Z,100440.41
2023-05-21T18:45:08.884Z,100438.73
2023-05-21T18:47:36.510Z,100440.59
2023-05-21T18:50:04.220Z,100437.55
2023-05-21T18:54:54.821Z,100442.51
2023-05-21T18:57:21.971Z,100444.13
2023-05-21T18:59:49.218Z,100442.13
2023-05-21T19:02:18.830Z,100439.09
2023-05-21T19:04:46.321Z,100439.34
2023-05-21T19:07:13.546Z,100436.02
2023-05-21T19:09:40.797Z,100439.45
2023-05-21T19:12:08.354Z,100436.72
2023-05-21T19:14:35.708Z,100436.09
2023-05-21T19:17:02.861Z,100441.44
2023-05-21T19:19:30.111Z,100437.73
2023-05-21T19:21:58.089Z,100435.80
2023-05-21T19:24:25.648Z,100434.62
2023-05-21T19:26:52.893Z,100432.45
2023-05-21T19:29:20.155Z,100430.48
2023-05-21T19:31:47.507Z,100427.98
2023-05-21T19:34:14.784Z,100425.29
2023-05-21T19:36:51.994Z,100423.30
2023-05-21T19:39:20.641Z,100416.03
2023-05-21T19:41:47.681Z,100412.63
2023-05-21T19:44:14.724Z,100409.74
2023-05-21T19:46:41.882Z,100412.84
2023-05-21T19:49:11.281Z,100412.17
2023-05-21T19:51:38.544Z,100412.42
2023-05-21T19:54:05.816Z,100412.55
2023-05-21T19:56:33.062Z,100411.42
2023-05-21T19:59:00.496Z,100412.05
2023-05-21T20:01:29.521Z,100410.50
2023-05-21T20:03:56.896Z,100419.20
2023-05-21T20:06:24.362Z,100417.23
2023-05-21T20:08:52.889Z,100418.08
2023-05-21T20:11:19.932Z,100421.81
2023-05-21T20:13:50.379Z,100419.14
2023-05-21T20:16:18.757Z,100422.98
2023-05-21T20:18:49.195Z,100420.66
2023-05-21T20:21:20.405Z,100421.55
2023-05-21T20:23:47.667Z,100422.22
2023-05-21T20:26:15.236Z,100420.16
2023-05-21T20:28:42.551Z,100422.58
2023-05-21T20:31:09.771Z,100419.02
2023-05-21T20:33:43.175Z,100421.91
2023-05-21T20:36:10.755Z,100421.45
2023-05-21T20:38:38.477Z,100421.05
2023-05-21T20:41:05.723Z,100420.42
2023-05-21T20:43:33.365Z,100418.52
2023-05-21T20:46:02.191Z,100421.55
2023-05-21T20:48:29.778Z,100423.89
2023-05-21T20:50:57.899Z,100423.67
2023-05-21T20:53:25.420Z,100422.65
2023-05-21T20:55:55.818Z,100421.20
2023-05-21T20:58:25.798Z,100424.38
2023-05-21T21:00:52.948Z,100424.91
2023-05-21T21:03:21.956Z,100427.50
2023-05-21T21:05:49.298Z,100424.31
2023-05-21T21:08:16.644Z,100421.68
2023-05-21T21:10:47.087Z,100424.15
2023-05-21T21:13:14.966Z,100423.39
2023-05-21T21:15:44.084Z,100423.13
2023-05-21T21:18:12.803Z,100427.87
2023-05-21T21:20:41.673Z,100427.25
2023-05-21T21:23:09.169Z,100429.06
2023-05-21T21:25:36.229Z,100429.42
2023-05-21T21:28:03.432Z,100426.99
2023-05-21T21:30:30.729Z,100427.09
2023-05-21T21:32:57.939Z,100429.52
2023-05-21T21:35:25.354Z,100429.41
2023-05-21T21:37:52.390Z,100426.42
2023-05-21T21:40:19.538Z,100426.77
2023-05-21T21:42:46.901Z,100426.27
2023-05-21T21:45:13.943Z,100429.70
2023-05-21T21:47:41.440Z,100430.45
2023-05-21T21:50:09.114Z,100428.75
2023-05-21T21:52:40.285Z,100432.31
2023-05-21T21:55:10.946Z,100434.09
2023-05-21T21:57:39.016Z,100433.11
2023-05-21T22:00:11.669Z,100430.95
2023-05-21T22:02:40.472Z,100428.20
2023-05-21T22:05:09.063Z,100429.05
2023-05-21T22:07:39.017Z,100430.25
2023-05-21T22:10:06.890Z,100429.34
2023-05-21T22:12:34.358Z,100429.15
2023-05-21T22:15:06.149Z,100429.05
2023-05-21T22:17:34.345Z,100424.83
2023-05-21T22:20:01.530Z,100427.79
2023-05-21T22:22:28.687Z,100426.95
2023-05-21T22:24:56.142Z,100425.94
2023-05-21T22:27:23.236Z,100428.71
2023-05-21T22:29:50.287Z,100424.85
2023-05-21T22:32:17.495Z,100428.86
2023-05-21T22:34:47.358Z,100422.74
2023-05-21T22:37:14.372Z,100422.17
2023-05-21T22:39:41.512Z,100419.20
2023-05-21T22:42:08.668Z,100417.70
2023-05-21T22:44:36.011Z,100416.91
2023-05-21T22:47:03.771Z,100412.80
2023-05-21T22:49:33.065Z,100414.66
2023-05-21T22:52:05.487Z,100414.22
2023-05-21T22:54:33.032Z,100416.34
2023-05-21T22:57:02.843Z,100414.02
2023-05-21T22:59:30.513Z,100409.77
2023-05-21T23:01:57.584Z,100410.09
2023-05-21T23:04:35.747Z,100406.40
2023-05-21T23:07:07.323Z,100404.48
2023-05-21T23:09:34.361Z,100406.86
2023-05-21T23:12:01.716Z,100408.65
2023-05-21T23:14:28.764Z,100405.61
2023-05-21T23:16:55.812Z,100404.23
2023-05-21T23:19:22.995Z,100400.73
2023-05-21T23:21:50.316Z,100396.48
2023-05-21T23:24:17.366Z,100396.41
2023-05-21T23:26:44.623Z,100394.61
2023-05-21T23:29:11.871Z,100394.24
2023-05-21T23:31:39.045Z,100391.05
2023-05-21T23:34:06.644Z,100389.36
2023-05-21T23:36:33.751Z,100386.66
2023-05-21T23:39:01.004Z,100387.80
2023-05-21T23:41:28.358Z,100382.04
2023-05-21T23:43:55.485Z,100385.73
2023-05-21T23:46:22.819Z,100386.09
2023-05-21T23:48:50.070Z,100387.43
2023-05-21T23:51:18.564Z,100384.48
2023-05-21T23:53:45.876Z,100382.14
2023-05-21T23:56:12.950Z,100384.21
2023-05-21T23:58:40.000Z,100384.07
